Time Latitude Longitude Accuracy (66% radius in meters) Altitude (meters) Speed (km/hour) Bearing (degrees) Battery (%) GPS flag
15:37:42 3.554652 -76.197575 0 0 0 0 1 delete
15:37:18 3.554634 -76.197550 0 0 0 0 1 delete
15:36:42 3.554620 -76.197576 0 0 0 0 1 delete
15:36:09 3.554596 -76.197589 0 0 0 0 1 delete
15:36:06 3.554624 -76.197598 0 0 0 0 1 delete
15:35:59 3.554644 -76.197579 0 0 0 0 1 delete
15:35:53 3.554654 -76.197550 0 0 0 0 1 delete
15:35:51 3.554697 -76.197534 0 0 0 0 1 delete
15:35:50 3.554726 -76.197519 0 0 0 0 1 delete
15:35:49 3.554757 -76.197493 0 0 0 0 1 delete
15:35:48 3.554794 -76.197465 0 0 0 0 1 delete
15:35:47 3.554823 -76.197442 0 0 0 0 1 delete
15:35:46 3.554862 -76.197428 0 0 0 0 1 delete
15:35:45 3.554904 -76.197415 0 0 0 0 1 delete
15:35:44 3.554941 -76.197400 0 0 0 0 1 delete
15:35:43 3.554991 -76.197382 0 0 0 0 1 delete
15:35:42 3.555035 -76.197360 0 0 0 0 1 delete
15:35:41 3.555080 -76.197337 0 0 0 0 1 delete
15:35:40 3.555119 -76.197318 0 0 0 0 1 delete
15:35:39 3.555164 -76.197299 0 0 0 0 1 delete
15:35:38 3.555208 -76.197278 0 0 0 0 1 delete
15:35:37 3.555253 -76.197257 0 0 0 0 1 delete
15:35:36 3.555301 -76.197228 0 0 0 0 1 delete
15:35:35 3.555347 -76.197208 0 0 0 0 1 delete
15:35:33 3.555447 -76.197161 0 0 0 0 1 delete
15:35:31 3.555542 -76.197130 0 0 0 0 1 delete
15:35:30 3.555589 -76.197116 0 0 0 0 1 delete
15:35:29 3.555642 -76.197097 0 0 0 0 1 delete
15:35:28 3.555689 -76.197090 0 0 0 0 1 delete
15:35:27 3.555737 -76.197082 0 0 0 0 1 delete
15:35:26 3.555788 -76.197067 0 0 0 0 1 delete
15:35:25 3.555842 -76.197060 0 0 0 0 1 delete
15:35:24 3.555894 -76.197058 0 0 0 0 1 delete
15:35:23 3.555940 -76.197067 0 0 0 0 1 delete
15:35:22 3.555993 -76.197085 0 0 0 0 1 delete
15:35:21 3.556039 -76.197106 0 0 0 0 1 delete
15:35:20 3.556086 -76.197141 0 0 0 0 1 delete
15:35:19 3.556122 -76.197171 0 0 0 0 1 delete
15:35:18 3.556165 -76.197207 0 0 0 0 1 delete
15:35:17 3.556207 -76.197248 0 0 0 0 1 delete
15:35:16 3.556243 -76.197282 0 0 0 0 1 delete
15:35:15 3.556269 -76.197316 0 0 0 0 1 delete
15:35:14 3.556294 -76.197336 0 0 0 0 1 delete
15:35:13 3.556319 -76.197358 0 0 0 0 1 delete
15:35:12 3.556345 -76.197381 0 0 0 0 1 delete
15:35:11 3.556372 -76.197404 0 0 0 0 1 delete
15:35:10 3.556398 -76.197418 0 0 0 0 1 delete
15:35:08 3.556438 -76.197444 0 0 0 0 1 delete
15:35:07 3.556468 -76.197447 0 0 0 0 1 delete
15:35:06 3.556497 -76.197447 0 0 0 0 1 delete